This is the latest recevied telemetry packets stored in our database for station/object DO5MF-5. If no packets are shown the sender has not sent any telemetry packets the latest 1 day(s).
Telemetry packets is used to share measurements like repeteater parameters, battery voltage, radiation readings (or any other measurements).
| Time | Uptime* | Car voltage* | Battery voltage* | Temperature* | Humidity* |
|---|---|---|---|---|---|
| 1836274781 | 89.49 Days | 12.41 Volt | 4.09 Volt | 23.09 Celsius | 34.3 % |
| 1836274180 | 89.49 Days | 12.42 Volt | 4.09 Volt | 23.44 Celsius | 33.88 % |
| 1778014730 | 151.2 Days | 11.74 Volt | 4.09 Volt | 13.46 Celsius | 52.96 % |
| 1778014129 | 151.2 Days | 11.76 Volt | 4.09 Volt | 13.55 Celsius | 53.07 % |
| 1778013528 | 151.2 Days | 11.73 Volt | 4.09 Volt | 13.65 Celsius | 53.16 % |
| 1778012927 | 151.2 Days | 11.82 Volt | 4.09 Volt | 13.76 Celsius | 53.22 % |
| 1778012326 | 151.2 Days | 11.79 Volt | 4.09 Volt | 13.89 Celsius | 53.27 % |
| 1778011725 | 151.2 Days | 11.79 Volt | 4.09 Volt | 14.03 Celsius | 53.29 % |
| 1778011124 | 151.2 Days | 11.84 Volt | 4.09 Volt | 14.17 Celsius | 53.33 % |
| 1778010523 | 151.2 Days | 11.84 Volt | 4.09 Volt | 14.32 Celsius | 53.41 % |
| 1778009922 | 151.2 Days | 11.84 Volt | 4.09 Volt | 14.5 Celsius | 53.36 % |
| 1778009321 | 151.2 Days | 11.84 Volt | 4.09 Volt | 14.7 Celsius | 53.39 % |
| 1778008720 | 151.2 Days | 11.86 Volt | 4.1 Volt | 14.89 Celsius | 53.42 % |
| 1778008119 | 151.2 Days | 11.89 Volt | 4.09 Volt | 15.07 Celsius | 53.44 % |
| 1778007518 | 151.2 Days | 11.93 Volt | 4.09 Volt | 15.31 Celsius | 53.5 % |
| 1778006917 | 151.2 Days | 11.88 Volt | 4.09 Volt | 15.53 Celsius | 53.51 % |
| 1778006316 | 151.2 Days | 11.91 Volt | 4.09 Volt | 15.77 Celsius | 53.43 % |
| 1778005715 | 151.2 Days | 11.91 Volt | 4.09 Volt | 16.01 Celsius | 53.44 % |
| 1778005114 | 151.2 Days | 11.94 Volt | 4.09 Volt | 16.27 Celsius | 53.32 % |
| 1778004513 | 151.2 Days | 11.94 Volt | 4.09 Volt | 16.54 Celsius | 53.08 % |
| 1778003912 | 151.2 Days | 11.94 Volt | 4.1 Volt | 16.85 Celsius | 52.67 % |
| 1778003311 | 151.2 Days | 11.81 Volt | 4.1 Volt | 17.19 Celsius | 52.17 % |
| 1778002710 | 151.2 Days | 11.8 Volt | 4.09 Volt | 17.58 Celsius | 51.8 % |
| 1778002109 | 151.2 Days | 11.84 Volt | 4.09 Volt | 18.08 Celsius | 51.51 % |
| 1778001508 | 151.2 Days | 11.77 Volt | 4.1 Volt | 18.5 Celsius | 51.76 % |
*Used Equation Coefficients:
Uptime: 0, 0.44082126, 0
Car voltage: 0, 0.00217391, 0
Battery voltage: 0, 0.00054348, 0
Temperature: 0, 0.01509662, -40
Humidity: 0, 0.01207729, 0
- The parameter names for the analog channels will be Value1, Value2, Value3 (up to Value5) if station has not sent a PARAM-packet that specifies the parameter names for each analog channel.
- Each analog value is a decimal number between 000 and 255 (according to APRS specifications). The receiver use the telemetry equation coefficientsto to restore the original sensor values. If no EQNS-packet with equation coefficients is sent we will show the values as is (this corresponds to the equation coefficients a=0, b=1 and c=0).
The sent equation coefficients is used in the equation: a * value2 + b * value + c. - The units for the analog values will not be shown if station has not sent a UNIT-packet specifying what unit's to use.
- The parameter names for the digital bits will be Bit1, Bit2, Bit3 (up to Bit8) if station has not sent a PARAM-packet that specifies the parameter names for each digital bit.
- All bit labels will be named "On" if station has not sent a UNIT-packet that specifies the label of each bit.
- A bit is considered to be On when the bit is 1 if station has not sent a BITS-packet that specifies another "Bit sense" (a BITS-packet specify the state of the bits that match the BIT labels)